sensor_id;sensor_type;location;lat;lon;timestamp;pressure;altitude;pressure_sealevel;temperature;humidity
22605;BME280;11469;49.024;8.246;2023-04-10T00:01:04;100987.25;;;6.76;77.05
22605;BME280;11469;49.024;8.246;2023-04-10T00:03:30;100988.19;;;6.72;77.12
22605;BME280;11469;49.024;8.246;2023-04-10T00:05:56;100988.47;;;6.53;77.78
22605;BME280;11469;49.024;8.246;2023-04-10T00:08:23;100991.06;;;6.49;78.58
22605;BME280;11469;49.024;8.246;2023-04-10T00:10:49;100992.66;;;6.42;79.00
22605;BME280;11469;49.024;8.246;2023-04-10T00:13:15;100985.19;;;6.51;79.38
22605;BME280;11469;49.024;8.246;2023-04-10T00:15:41;100993.50;;;6.42;79.41
22605;BME280;11469;49.024;8.246;2023-04-10T00:18:06;100991.59;;;6.29;80.35
22605;BME280;11469;49.024;8.246;2023-04-10T00:20:32;100994.63;;;6.10;80.68
22605;BME280;11469;49.024;8.246;2023-04-10T00:22:57;100994.44;;;6.07;81.01
22605;BME280;11469;49.024;8.246;2023-04-10T00:25:23;100994.25;;;6.03;80.95
22605;BME280;11469;49.024;8.246;2023-04-10T00:27:48;100991.28;;;5.99;81.01
22605;BME280;11469;49.024;8.246;2023-04-10T00:30:14;100999.75;;;5.94;81.33
22605;BME280;11469;49.024;8.246;2023-04-10T00:32:40;100992.69;;;6.19;81.26
22605;BME280;11469;49.024;8.246;2023-04-10T00:35:07;100982.59;;;6.01;81.55
22605;BME280;11469;49.024;8.246;2023-04-10T00:37:32;100991.41;;;5.81;82.29
22605;BME280;11469;49.024;8.246;2023-04-10T00:39:58;100991.66;;;5.71;82.98
22605;BME280;11469;49.024;8.246;2023-04-10T00:42:23;100982.06;;;5.54;83.58
22605;BME280;11469;49.024;8.246;2023-04-10T00:44:49;100994.84;;;5.55;83.40
22605;BME280;11469;49.024;8.246;2023-04-10T00:47:14;100990.75;;;5.39;83.48
22605;BME280;11469;49.024;8.246;2023-04-10T00:49:41;100987.47;;;5.37;84.29
22605;BME280;11469;49.024;8.246;2023-04-10T00:52:07;100989.00;;;5.29;84.08
22605;BME280;11469;49.024;8.246;2023-04-10T00:54:32;100993.25;;;5.27;84.36
22605;BME280;11469;49.024;8.246;2023-04-10T00:57:00;100992.63;;;5.30;84.11
22605;BME280;11469;49.024;8.246;2023-04-10T00:59:27;100987.84;;;4.94;86.05
22605;BME280;11469;49.024;8.246;2023-04-10T01:01:53;100995.97;;;4.91;86.93
22605;BME280;11469;49.024;8.246;2023-04-10T01:04:18;100989.59;;;4.77;87.60
22605;BME280;11469;49.024;8.246;2023-04-10T01:06:57;100990.22;;;4.87;87.72
22605;BME280;11469;49.024;8.246;2023-04-10T01:09:41;100989.28;;;4.78;87.29
22605;BME280;11469;49.024;8.246;2023-04-10T01:15:01;100994.03;;;4.64;87.54
22605;BME280;11469;49.024;8.246;2023-04-10T01:20:24;100991.56;;;4.76;88.76
22605;BME280;11469;49.024;8.246;2023-04-10T01:23:02;100997.22;;;4.71;88.56
22605;BME280;11469;49.024;8.246;2023-04-10T01:30:45;100991.75;;;4.80;89.58
22605;BME280;11469;49.024;8.246;2023-04-10T01:33:13;100996.09;;;4.58;89.40
22605;BME280;11469;49.024;8.246;2023-04-10T01:35:42;100994.34;;;4.62;89.87
22605;BME280;11469;49.024;8.246;2023-04-10T01:38:12;101002.88;;;4.66;90.62
22605;BME280;11469;49.024;8.246;2023-04-10T01:40:41;101003.66;;;4.39;91.70
22605;BME280;11469;49.024;8.246;2023-04-10T01:43:13;101003.75;;;4.34;92.76
22605;BME280;11469;49.024;8.246;2023-04-10T01:45:39;100997.78;;;4.27;93.78
22605;BME280;11469;49.024;8.246;2023-04-10T01:48:08;101001.91;;;4.29;94.13
22605;BME280;11469;49.024;8.246;2023-04-10T01:50:34;100999.34;;;4.33;94.03
22605;BME280;11469;49.024;8.246;2023-04-10T01:53:02;100994.03;;;4.50;93.14
22605;BME280;11469;49.024;8.246;2023-04-10T01:55:28;100988.19;;;4.65;91.85
22605;BME280;11469;49.024;8.246;2023-04-10T01:57:53;100987.25;;;4.70;92.10
22605;BME280;11469;49.024;8.246;2023-04-10T02:00:19;100977.56;;;4.54;91.82
22605;BME280;11469;49.024;8.246;2023-04-10T02:02:45;100983.75;;;4.51;92.74
22605;BME280;11469;49.024;8.246;2023-04-10T02:05:10;100972.31;;;4.52;92.62
22605;BME280;11469;49.024;8.246;2023-04-10T02:12:54;100968.50;;;4.76;91.74
22605;BME280;11469;49.024;8.246;2023-04-10T02:15:26;100971.38;;;4.98;90.53
22605;BME280;11469;49.024;8.246;2023-04-10T02:17:53;100969.13;;;5.00;90.01
22605;BME280;11469;49.024;8.246;2023-04-10T02:20:21;100967.09;;;5.28;87.92
22605;BME280;11469;49.024;8.246;2023-04-10T02:22:48;100964.00;;;5.29;87.73
22605;BME280;11469;49.024;8.246;2023-04-10T02:25:13;100964.72;;;5.21;87.55
22605;BME280;11469;49.024;8.246;2023-04-10T02:27:40;100965.56;;;5.22;87.32
22605;BME280;11469;49.024;8.246;2023-04-10T02:30:07;100962.34;;;5.28;87.45
22605;BME280;11469;49.024;8.246;2023-04-10T02:32:33;100965.53;;;5.36;86.97
22605;BME280;11469;49.024;8.246;2023-04-10T02:34:58;100960.88;;;5.45;86.51
22605;BME280;11469;49.024;8.246;2023-04-10T02:37:24;100967.16;;;5.50;85.12
22605;BME280;11469;49.024;8.246;2023-04-10T02:39:49;100960.53;;;5.60;84.65
22605;BME280;11469;49.024;8.246;2023-04-10T02:42:15;100967.13;;;5.73;83.79
22605;BME280;11469;49.024;8.246;2023-04-10T02:44:40;100964.88;;;5.75;83.17
22605;BME280;11469;49.024;8.246;2023-04-10T02:47:06;100968.44;;;5.66;83.42
22605;BME280;11469;49.024;8.246;2023-04-10T02:49:34;100971.25;;;5.53;83.71
22605;BME280;11469;49.024;8.246;2023-04-10T02:52:00;100957.66;;;5.51;83.95
22605;BME280;11469;49.024;8.246;2023-04-10T02:54:26;100957.81;;;5.32;84.65
22605;BME280;11469;49.024;8.246;2023-04-10T02:56:51;100954.53;;;5.30;85.11
22605;BME280;11469;49.024;8.246;2023-04-10T02:59:16;100962.31;;;5.42;85.00
22605;BME280;11469;49.024;8.246;2023-04-10T03:01:42;100956.44;;;5.44;84.34
22605;BME280;11469;49.024;8.246;2023-04-10T03:04:08;100956.41;;;5.57;83.76
22605;BME280;11469;49.024;8.246;2023-04-10T03:06:33;100952.09;;;5.51;84.13
22605;BME280;11469;49.024;8.246;2023-04-10T03:08:58;100953.56;;;5.49;83.89
22605;BME280;11469;49.024;8.246;2023-04-10T03:11:24;100949.94;;;5.48;84.13
22605;BME280;11469;49.024;8.246;2023-04-10T03:13:49;100945.22;;;5.49;83.76
22605;BME280;11469;49.024;8.246;2023-04-10T03:16:15;100942.28;;;5.31;84.46
22605;BME280;11469;49.024;8.246;2023-04-10T03:18:42;100934.13;;;5.35;84.62
22605;BME280;11469;49.024;8.246;2023-04-10T03:21:08;100941.69;;;5.57;84.02
22605;BME280;11469;49.024;8.246;2023-04-10T03:23:33;100936.25;;;5.52;83.58
22605;BME280;11469;49.024;8.246;2023-04-10T03:25:58;100928.13;;;5.42;83.22
22605;BME280;11469;49.024;8.246;2023-04-10T03:28:24;100926.66;;;5.22;84.31
22605;BME280;11469;49.024;8.246;2023-04-10T03:30:50;100917.06;;;5.28;85.41
22605;BME280;11469;49.024;8.246;2023-04-10T03:33:15;100924.13;;;5.12;85.24
22605;BME280;11469;49.024;8.246;2023-04-10T03:35:41;100924.88;;;5.04;86.36
22605;BME280;11469;49.024;8.246;2023-04-10T03:38:07;100905.94;;;5.06;86.47
22605;BME280;11469;49.024;8.246;2023-04-10T03:40:32;100909.53;;;5.06;86.48
22605;BME280;11469;49.024;8.246;2023-04-10T03:43:00;100899.88;;;5.04;86.40
22605;BME280;11469;49.024;8.246;2023-04-10T03:45:26;100908.34;;;5.21;85.69
22605;BME280;11469;49.024;8.246;2023-04-10T03:47:51;100908.91;;;5.09;86.46
22605;BME280;11469;49.024;8.246;2023-04-10T03:50:17;100909.94;;;4.99;86.56
22605;BME280;11469;49.024;8.246;2023-04-10T03:52:43;100912.22;;;4.97;86.97
22605;BME280;11469;49.024;8.246;2023-04-10T03:55:08;100913.97;;;4.93;87.28
22605;BME280;11469;49.024;8.246;2023-04-10T03:57:34;100904.41;;;4.86;87.83
22605;BME280;11469;49.024;8.246;2023-04-10T03:59:59;100915.94;;;4.79;88.25
22605;BME280;11469;49.024;8.246;2023-04-10T04:02:24;100914.09;;;4.75;88.47
22605;BME280;11469;49.024;8.246;2023-04-10T04:04:50;100915.84;;;4.84;88.19
22605;BME280;11469;49.024;8.246;2023-04-10T04:07:15;100916.16;;;4.83;88.02
22605;BME280;11469;49.024;8.246;2023-04-10T04:09:41;100913.09;;;4.71;88.03
22605;BME280;11469;49.024;8.246;2023-04-10T04:12:06;100908.69;;;4.56;89.89
22605;BME280;11469;49.024;8.246;2023-04-10T04:14:32;100909.41;;;4.61;90.48
22605;BME280;11469;49.024;8.246;2023-04-10T04:16:57;100905.91;;;4.56;90.17
22605;BME280;11469;49.024;8.246;2023-04-10T04:19:23;100907.25;;;4.72;89.45
22605;BME280;11469;49.024;8.246;2023-04-10T04:21:48;100910.22;;;4.62;89.76
22605;BME280;11469;49.024;8.246;2023-04-10T04:24:14;100909.59;;;4.51;90.24
22605;BME280;11469;49.024;8.246;2023-04-10T04:26:39;100902.09;;;4.52;90.26
22605;BME280;11469;49.024;8.246;2023-04-10T04:29:04;100897.06;;;4.40;90.83
22605;BME280;11469;49.024;8.246;2023-04-10T04:31:30;100897.56;;;4.28;91.85
22605;BME280;11469;49.024;8.246;2023-04-10T04:33:59;100900.25;;;4.33;91.80
22605;BME280;11469;49.024;8.246;2023-04-10T04:36:25;100906.41;;;4.30;91.91
22605;BME280;11469;49.024;8.246;2023-04-10T04:38:52;100903.94;;;4.29;91.94
22605;BME280;11469;49.024;8.246;2023-04-10T04:41:17;100908.88;;;4.32;92.08
22605;BME280;11469;49.024;8.246;2023-04-10T04:43:43;100914.94;;;4.34;91.96
22605;BME280;11469;49.024;8.246;2023-04-10T04:46:09;100923.28;;;4.34;92.30
22605;BME280;11469;49.024;8.246;2023-04-10T04:48:34;100917.63;;;4.39;92.03
22605;BME280;11469;49.024;8.246;2023-04-10T04:51:00;100917.22;;;4.46;90.69
22605;BME280;11469;49.024;8.246;2023-04-10T04:53:26;100921.44;;;4.43;90.47
22605;BME280;11469;49.024;8.246;2023-04-10T04:55:51;100926.28;;;4.51;90.54
22605;BME280;11469;49.024;8.246;2023-04-10T04:58:16;100933.88;;;4.46;90.41
22605;BME280;11469;49.024;8.246;2023-04-10T05:00:42;100933.97;;;4.41;90.76
22605;BME280;11469;49.024;8.246;2023-04-10T05:03:07;100927.59;;;4.40;90.81
22605;BME280;11469;49.024;8.246;2023-04-10T05:05:32;100932.31;;;4.40;90.51
22605;BME280;11469;49.024;8.246;2023-04-10T05:07:58;100934.59;;;4.38;90.59
22605;BME280;11469;49.024;8.246;2023-04-10T05:10:23;100939.72;;;4.44;89.80
22605;BME280;11469;49.024;8.246;2023-04-10T05:12:48;100943.31;;;4.45;89.32
22605;BME280;11469;49.024;8.246;2023-04-10T05:15:14;100941.78;;;4.25;89.38
22605;BME280;11469;49.024;8.246;2023-04-10T05:17:39;100940.03;;;4.29;90.12
22605;BME280;11469;49.024;8.246;2023-04-10T05:20:05;100935.88;;;3.99;90.96
22605;BME280;11469;49.024;8.246;2023-04-10T05:22:31;100929.69;;;3.88;91.83
22605;BME280;11469;49.024;8.246;2023-04-10T05:24:56;100926.47;;;3.81;92.22
22605;BME280;11469;49.024;8.246;2023-04-10T05:27:22;100924.81;;;3.80;92.38
22605;BME280;11469;49.024;8.246;2023-04-10T05:29:47;100918.66;;;3.70;92.91
22605;BME280;11469;49.024;8.246;2023-04-10T05:32:13;100920.22;;;3.76;93.16
22605;BME280;11469;49.024;8.246;2023-04-10T05:34:38;100917.97;;;3.78;93.55
22605;BME280;11469;49.024;8.246;2023-04-10T05:37:04;100917.53;;;3.84;94.07
22605;BME280;11469;49.024;8.246;2023-04-10T05:39:29;100922.78;;;3.86;94.38
22605;BME280;11469;49.024;8.246;2023-04-10T05:41:55;100923.00;;;3.89;94.20
22605;BME280;11469;49.024;8.246;2023-04-10T05:44:21;100926.00;;;3.93;94.79
22605;BME280;11469;49.024;8.246;2023-04-10T05:46:46;100931.38;;;4.03;94.55
22605;BME280;11469;49.024;8.246;2023-04-10T05:49:11;100929.19;;;4.00;94.20
22605;BME280;11469;49.024;8.246;2023-04-10T05:51:37;100932.50;;;4.02;95.51
22605;BME280;11469;49.024;8.246;2023-04-10T05:54:02;100938.16;;;4.11;95.04
22605;BME280;11469;49.024;8.246;2023-04-10T05:56:27;100938.06;;;4.16;95.47
22605;BME280;11469;49.024;8.246;2023-04-10T05:58:53;100930.69;;;4.25;95.61
22605;BME280;11469;49.024;8.246;2023-04-10T06:01:18;100929.97;;;4.47;94.89
22605;BME280;11469;49.024;8.246;2023-04-10T06:03:43;100929.88;;;4.52;95.11
22605;BME280;11469;49.024;8.246;2023-04-10T06:06:09;100935.22;;;4.62;94.68
22605;BME280;11469;49.024;8.246;2023-04-10T06:08:35;100935.69;;;4.78;93.95
22605;BME280;11469;49.024;8.246;2023-04-10T06:11:00;100939.28;;;4.92;94.02
22605;BME280;11469;49.024;8.246;2023-04-10T06:13:25;100929.19;;;5.10;93.46
22605;BME280;11469;49.024;8.246;2023-04-10T06:15:51;100932.44;;;5.48;91.23
22605;BME280;11469;49.024;8.246;2023-04-10T06:18:17;100925.06;;;5.65;89.77
22605;BME280;11469;49.024;8.246;2023-04-10T06:20:42;100931.50;;;5.97;88.40
22605;BME280;11469;49.024;8.246;2023-04-10T06:23:08;100926.97;;;6.41;86.36
22605;BME280;11469;49.024;8.246;2023-04-10T06:25:33;100923.63;;;6.61;85.66
22605;BME280;11469;49.024;8.246;2023-04-10T06:27:58;100919.94;;;7.17;82.00
22605;BME280;11469;49.024;8.246;2023-04-10T06:30:24;100915.38;;;7.39;81.71
22605;BME280;11469;49.024;8.246;2023-04-10T06:32:49;100919.94;;;7.69;79.08
22605;BME280;11469;49.024;8.246;2023-04-10T06:35:15;100925.69;;;7.81;79.24
22605;BME280;11469;49.024;8.246;2023-04-10T06:37:41;100916.63;;;8.02;80.31
22605;BME280;11469;49.024;8.246;2023-04-10T06:40:08;100918.31;;;8.41;79.34
22605;BME280;11469;49.024;8.246;2023-04-10T06:42:35;100913.81;;;8.86;73.62
22605;BME280;11469;49.024;8.246;2023-04-10T06:45:01;100911.69;;;9.34;68.88
22605;BME280;11469;49.024;8.246;2023-04-10T06:47:27;100916.25;;;9.38;67.61
22605;BME280;11469;49.024;8.246;2023-04-10T06:49:52;100903.16;;;9.30;66.87
22605;BME280;11469;49.024;8.246;2023-04-10T06:52:18;100913.09;;;9.40;65.05
22605;BME280;11469;49.024;8.246;2023-04-10T06:54:43;100910.91;;;9.45;65.45
22605;BME280;11469;49.024;8.246;2023-04-10T06:57:09;100903.31;;;9.46;65.10
22605;BME280;11469;49.024;8.246;2023-04-10T06:59:34;100898.34;;;9.51;63.19
22605;BME280;11469;49.024;8.246;2023-04-10T07:02:01;100905.56;;;9.52;63.06
22605;BME280;11469;49.024;8.246;2023-04-10T07:04:27;100898.25;;;9.60;63.65
22605;BME280;11469;49.024;8.246;2023-04-10T07:06:52;100899.47;;;9.38;62.01
22605;BME280;11469;49.024;8.246;2023-04-10T07:09:18;100904.63;;;9.48;61.13
22605;BME280;11469;49.024;8.246;2023-04-10T07:11:43;100913.97;;;9.73;62.29
22605;BME280;11469;49.024;8.246;2023-04-10T07:14:08;100912.97;;;9.90;61.41
22605;BME280;11469;49.024;8.246;2023-04-10T07:16:34;100908.22;;;10.03;61.20
22605;BME280;11469;49.024;8.246;2023-04-10T07:18:59;100908.38;;;10.18;60.42
22605;BME280;11469;49.024;8.246;2023-04-10T07:21:25;100904.91;;;10.21;58.62
22605;BME280;11469;49.024;8.246;2023-04-10T07:23:51;100897.94;;;10.40;59.51
22605;BME280;11469;49.024;8.246;2023-04-10T07:26:17;100894.66;;;10.50;57.63
22605;BME280;11469;49.024;8.246;2023-04-10T07:28:42;100899.09;;;10.63;56.96
22605;BME280;11469;49.024;8.246;2023-04-10T07:31:07;100891.16;;;10.77;56.76
22605;BME280;11469;49.024;8.246;2023-04-10T07:33:34;100897.09;;;11.00;57.54
22605;BME280;11469;49.024;8.246;2023-04-10T07:36:00;100889.47;;;11.01;55.22
22605;BME280;11469;49.024;8.246;2023-04-10T07:38:27;100887.50;;;10.89;54.97
22605;BME280;11469;49.024;8.246;2023-04-10T07:40:56;100885.88;;;10.88;55.05
22605;BME280;11469;49.024;8.246;2023-04-10T07:43:22;100892.88;;;10.94;55.18
22605;BME280;11469;49.024;8.246;2023-04-10T07:45:47;100890.78;;;11.03;54.36
22605;BME280;11469;49.024;8.246;2023-04-10T07:48:13;100896.84;;;11.17;54.03
22605;BME280;11469;49.024;8.246;2023-04-10T07:50:38;100889.34;;;11.21;53.95
22605;BME280;11469;49.024;8.246;2023-04-10T07:53:04;100896.19;;;11.36;53.05
22605;BME280;11469;49.024;8.246;2023-04-10T07:55:43;100890.28;;;11.53;53.02
22605;BME280;11469;49.024;8.246;2023-04-10T07:58:09;100891.09;;;11.54;52.46
22605;BME280;11469;49.024;8.246;2023-04-10T08:00:34;100898.31;;;11.67;52.35
22605;BME280;11469;49.024;8.246;2023-04-10T08:03:00;100888.09;;;11.75;51.94
22605;BME280;11469;49.024;8.246;2023-04-10T08:05:26;100887.44;;;11.93;51.65
22605;BME280;11469;49.024;8.246;2023-04-10T08:07:51;100885.28;;;11.75;50.42
22605;BME280;11469;49.024;8.246;2023-04-10T08:10:17;100893.06;;;11.66;50.59
22605;BME280;11469;49.024;8.246;2023-04-10T08:12:42;100890.75;;;11.83;49.17
22605;BME280;11469;49.024;8.246;2023-04-10T08:15:08;100898.16;;;12.04;49.47
22605;BME280;11469;49.024;8.246;2023-04-10T08:17:33;100892.63;;;12.07;49.07
22605;BME280;11469;49.024;8.246;2023-04-10T08:19:59;100892.00;;;12.29;50.74
22605;BME280;11469;49.024;8.246;2023-04-10T08:22:24;100889.19;;;12.45;48.77
22605;BME280;11469;49.024;8.246;2023-04-10T08:24:49;100887.84;;;12.55;49.23
22605;BME280;11469;49.024;8.246;2023-04-10T08:27:15;100882.31;;;12.43;47.76
22605;BME280;11469;49.024;8.246;2023-04-10T08:29:41;100892.00;;;12.45;49.80
22605;BME280;11469;49.024;8.246;2023-04-10T08:32:07;100889.47;;;12.56;47.67
22605;BME280;11469;49.024;8.246;2023-04-10T08:34:32;100895.38;;;12.35;47.44
22605;BME280;11469;49.024;8.246;2023-04-10T08:36:58;100897.72;;;12.49;47.81
22605;BME280;11469;49.024;8.246;2023-04-10T08:39:23;100891.66;;;12.62;46.81
22605;BME280;11469;49.024;8.246;2023-04-10T08:41:49;100888.81;;;12.78;46.86
22605;BME280;11469;49.024;8.246;2023-04-10T08:44:15;100889.78;;;13.02;46.97
22605;BME280;11469;49.024;8.246;2023-04-10T08:46:42;100890.59;;;13.18;47.16
22605;BME280;11469;49.024;8.246;2023-04-10T08:49:10;100884.50;;;13.35;45.09
22605;BME280;11469;49.024;8.246;2023-04-10T08:51:51;100874.38;;;13.50;45.18
22605;BME280;11469;49.024;8.246;2023-04-10T08:54:25;100881.28;;;13.52;43.46
22605;BME280;11469;49.024;8.246;2023-04-10T08:56:53;100868.00;;;13.53;43.09
22605;BME280;11469;49.024;8.246;2023-04-10T08:59:19;100869.78;;;13.61;43.95
22605;BME280;11469;49.024;8.246;2023-04-10T09:01:44;100866.69;;;13.66;44.50
22605;BME280;11469;49.024;8.246;2023-04-10T09:04:11;100855.41;;;13.66;43.02
22605;BME280;11469;49.024;8.246;2023-04-10T09:06:37;100862.03;;;13.77;42.72
22605;BME280;11469;49.024;8.246;2023-04-10T09:09:07;100855.88;;;13.91;43.60
22605;BME280;11469;49.024;8.246;2023-04-10T09:14:26;100839.25;;;14.05;42.54
22605;BME280;11469;49.024;8.246;2023-04-10T09:16:52;100846.88;;;14.27;42.64
22605;BME280;11469;49.024;8.246;2023-04-10T09:19:39;100831.41;;;14.41;42.83
22605;BME280;11469;49.024;8.246;2023-04-10T09:22:05;100832.31;;;14.45;40.79
22605;BME280;11469;49.024;8.246;2023-04-10T09:24:30;100828.28;;;14.23;39.95
22605;BME280;11469;49.024;8.246;2023-04-10T09:26:59;100817.28;;;14.14;40.23
22605;BME280;11469;49.024;8.246;2023-04-10T09:29:25;100820.25;;;14.25;40.11
22605;BME280;11469;49.024;8.246;2023-04-10T09:31:51;100811.22;;;14.39;39.58
22605;BME280;11469;49.024;8.246;2023-04-10T09:34:22;100811.59;;;14.60;39.94
22605;BME280;11469;49.024;8.246;2023-04-10T09:36:55;100812.56;;;14.71;38.84
22605;BME280;11469;49.024;8.246;2023-04-10T09:39:21;100811.16;;;14.58;39.60
22605;BME280;11469;49.024;8.246;2023-04-10T09:41:51;100814.25;;;14.76;39.72
22605;BME280;11469;49.024;8.246;2023-04-10T09:44:19;100800.16;;;14.49;38.40
22605;BME280;11469;49.024;8.246;2023-04-10T09:46:52;100802.59;;;14.51;39.30
22605;BME280;11469;49.024;8.246;2023-04-10T09:49:18;100794.81;;;14.71;39.45
22605;BME280;11469;49.024;8.246;2023-04-10T09:51:43;100792.31;;;14.92;40.31
22605;BME280;11469;49.024;8.246;2023-04-10T09:54:09;100787.75;;;15.14;39.65
22605;BME280;11469;49.024;8.246;2023-04-10T09:56:35;100784.59;;;15.19;38.25
22605;BME280;11469;49.024;8.246;2023-04-10T09:59:02;100778.19;;;15.22;38.87
22605;BME280;11469;49.024;8.246;2023-04-10T10:01:32;100777.59;;;15.06;39.52
22605;BME280;11469;49.024;8.246;2023-04-10T10:04:03;100771.16;;;14.79;38.87
22605;BME280;11469;49.024;8.246;2023-04-10T10:06:32;100765.94;;;14.81;39.05
22605;BME280;11469;49.024;8.246;2023-04-10T10:09:02;100774.50;;;14.88;38.08
22605;BME280;11469;49.024;8.246;2023-04-10T10:11:32;100770.81;;;15.14;38.79
22605;BME280;11469;49.024;8.246;2023-04-10T10:14:02;100760.19;;;15.34;38.10
22605;BME280;11469;49.024;8.246;2023-04-10T10:19:10;100759.38;;;15.70;38.17
22605;BME280;11469;49.024;8.246;2023-04-10T10:21:37;100756.59;;;15.74;37.61
22605;BME280;11469;49.024;8.246;2023-04-10T10:24:07;100753.44;;;15.79;37.15
22605;BME280;11469;49.024;8.246;2023-04-10T10:26:34;100755.91;;;15.84;37.71
22605;BME280;11469;49.024;8.246;2023-04-10T10:29:05;100745.81;;;15.86;36.92
22605;BME280;11469;49.024;8.246;2023-04-10T10:31:32;100745.91;;;15.93;36.39
22605;BME280;11469;49.024;8.246;2023-04-10T10:33:59;100738.34;;;16.08;36.02
22605;BME280;11469;49.024;8.246;2023-04-10T10:36:29;100740.44;;;16.18;35.94
22605;BME280;11469;49.024;8.246;2023-04-10T10:46:49;100719.00;;;16.69;35.20
22605;BME280;11469;49.024;8.246;2023-04-10T10:49:15;100723.88;;;16.75;34.39
22605;BME280;11469;49.024;8.246;2023-04-10T10:51:48;100717.03;;;16.80;34.43
22605;BME280;11469;49.024;8.246;2023-04-10T10:54:30;100705.38;;;16.96;34.77
22605;BME280;11469;49.024;8.246;2023-04-10T10:56:56;100705.84;;;17.15;34.62
22605;BME280;11469;49.024;8.246;2023-04-10T11:02:16;100706.28;;;17.24;33.58
22605;BME280;11469;49.024;8.246;2023-04-10T11:04:46;100710.34;;;17.27;33.32
22605;BME280;11469;49.024;8.246;2023-04-10T11:07:12;100707.41;;;17.06;33.94
22605;BME280;11469;49.024;8.246;2023-04-10T11:12:23;100693.00;;;17.43;34.46
22605;BME280;11469;49.024;8.246;2023-04-10T11:17:49;100687.00;;;17.80;32.85
22605;BME280;11469;49.024;8.246;2023-04-10T11:20:16;100680.91;;;17.81;32.12
22605;BME280;11469;49.024;8.246;2023-04-10T11:23:10;100675.25;;;17.96;32.93
22605;BME280;11469;49.024;8.246;2023-04-10T11:25:46;100663.47;;;18.22;34.83
22605;BME280;11469;49.024;8.246;2023-04-10T11:30:55;100667.50;;;18.39;32.24
22605;BME280;11469;49.024;8.246;2023-04-10T11:33:21;100665.47;;;18.39;32.00
22605;BME280;11469;49.024;8.246;2023-04-10T11:35:46;100660.56;;;18.43;32.63
22605;BME280;11469;49.024;8.246;2023-04-10T11:38:16;100662.16;;;18.55;32.55
22605;BME280;11469;49.024;8.246;2023-04-10T11:41:01;100652.03;;;18.54;32.27
22605;BME280;11469;49.024;8.246;2023-04-10T11:43:29;100650.41;;;18.67;31.11
22605;BME280;11469;49.024;8.246;2023-04-10T11:46:07;100648.38;;;18.68;30.65
22605;BME280;11469;49.024;8.246;2023-04-10T11:48:33;100639.44;;;18.66;30.80
22605;BME280;11469;49.024;8.246;2023-04-10T11:51:04;100644.72;;;18.67;30.84
22605;BME280;11469;49.024;8.246;2023-04-10T11:53:30;100645.09;;;18.73;31.00
22605;BME280;11469;49.024;8.246;2023-04-10T11:55:55;100632.13;;;18.75;31.23
22605;BME280;11469;49.024;8.246;2023-04-10T11:58:26;100626.34;;;18.93;31.41
22605;BME280;11469;49.024;8.246;2023-04-10T12:00:59;100632.28;;;19.20;32.68
22605;BME280;11469;49.024;8.246;2023-04-10T12:03:38;100630.59;;;19.33;32.46
22605;BME280;11469;49.024;8.246;2023-04-10T12:06:09;100618.69;;;19.45;32.12
22605;BME280;11469;49.024;8.246;2023-04-10T12:08:40;100610.94;;;19.57;34.10
22605;BME280;11469;49.024;8.246;2023-04-10T12:11:06;100616.50;;;19.71;32.33
22605;BME280;11469;49.024;8.246;2023-04-10T12:13:32;100610.75;;;19.81;32.08
22605;BME280;11469;49.024;8.246;2023-04-10T12:15:59;100615.59;;;19.84;30.88
22605;BME280;11469;49.024;8.246;2023-04-10T12:18:26;100608.38;;;19.73;31.60
22605;BME280;11469;49.024;8.246;2023-04-10T12:20:53;100606.72;;;19.75;31.23
22605;BME280;11469;49.024;8.246;2023-04-10T12:23:24;100609.28;;;19.59;30.61
22605;BME280;11469;49.024;8.246;2023-04-10T12:25:51;100596.13;;;19.24;30.09
22605;BME280;11469;49.024;8.246;2023-04-10T12:28:18;100590.03;;;19.29;31.03
22605;BME280;11469;49.024;8.246;2023-04-10T12:30:48;100592.41;;;19.34;30.98
22605;BME280;11469;49.024;8.246;2023-04-10T12:33:19;100589.44;;;19.48;30.75
22605;BME280;11469;49.024;8.246;2023-04-10T12:35:45;100592.69;;;19.54;31.90
22605;BME280;11469;49.024;8.246;2023-04-10T12:38:11;100599.91;;;19.66;30.15
22605;BME280;11469;49.024;8.246;2023-04-10T12:40:36;100591.72;;;19.71;29.92
22605;BME280;11469;49.024;8.246;2023-04-10T12:43:03;100595.22;;;19.86;29.99
22605;BME280;11469;49.024;8.246;2023-04-10T12:45:42;100588.31;;;19.87;29.71
22605;BME280;11469;49.024;8.246;2023-04-10T12:48:07;100578.03;;;20.00;29.29
22605;BME280;11469;49.024;8.246;2023-04-10T12:50:33;100572.00;;;19.95;28.63
22605;BME280;11469;49.024;8.246;2023-04-10T12:53:09;100564.22;;;19.99;30.96
22605;BME280;11469;49.024;8.246;2023-04-10T12:55:36;100560.81;;;20.14;30.86
22605;BME280;11469;49.024;8.246;2023-04-10T12:58:15;100558.06;;;20.07;30.83
22605;BME280;11469;49.024;8.246;2023-04-10T13:00:45;100567.78;;;20.10;30.01
22605;BME280;11469;49.024;8.246;2023-04-10T13:03:11;100561.69;;;20.08;30.36
22605;BME280;11469;49.024;8.246;2023-04-10T13:05:36;100561.56;;;20.22;31.75
22605;BME280;11469;49.024;8.246;2023-04-10T13:08:02;100562.53;;;20.42;30.98
22605;BME280;11469;49.024;8.246;2023-04-10T13:10:27;100552.44;;;20.38;30.53
22605;BME280;11469;49.024;8.246;2023-04-10T13:12:52;100552.88;;;20.33;31.62
22605;BME280;11469;49.024;8.246;2023-04-10T13:15:18;100541.88;;;20.35;31.49
22605;BME280;11469;49.024;8.246;2023-04-10T13:17:44;100537.81;;;20.32;31.16
22605;BME280;11469;49.024;8.246;2023-04-10T13:20:09;100533.66;;;20.44;31.37
22605;BME280;11469;49.024;8.246;2023-04-10T13:22:35;100529.63;;;20.41;31.33
22605;BME280;11469;49.024;8.246;2023-04-10T13:25:00;100529.41;;;20.25;31.65
22605;BME280;11469;49.024;8.246;2023-04-10T13:27:27;100527.63;;;20.35;32.19
22605;BME280;11469;49.024;8.246;2023-04-10T13:29:53;100515.22;;;20.21;31.40
22605;BME280;11469;49.024;8.246;2023-04-10T13:32:19;100515.59;;;20.24;33.18
22605;BME280;11469;49.024;8.246;2023-04-10T13:34:45;100514.22;;;20.35;34.28